Sommer S — WDG3830 — position and weather

sailwx.info

Track history (hours):
 
Tides and Currents Weather Stations Pressure Air Temp Water Temp Dewpoint Dewpoint Depression Visibility Wind Speed Wind Dir Waves Ship Positions

Sommer S

Owner: Shaver Transportation Company, Portland, OR. More information available from US FCC via Universal Licensing System and Coast Guard Vessel Documentation Center.

Last reported at 2016-Sep-24 19:33 UTC. Time now 2016-Sep-24 20:53 UTC.
Position N 45°38' W 122°43'.

Length 25 m; draft 16.5 m.

Type: Tug. MMSI: 367530080.

Date/timePositionNaut miles runAvg speedWind from/ knotsBaromVisibWave heightAir tempDewpointWater temp
2016-Sep-24 19:33N 45°38' W 122°43'1 1.2
2016-Sep-24 18:33N 45°39' W 122°45'7 6.7
2016-Sep-24 17:33N 45°45' W 122°46'7 7.3
2016-Sep-24 16:33N 45°52' W 122°47'14 6.8
2016-Sep-24 14:33N 46°05' W 122°55'3 1.6
2016-Sep-24 12:33N 46°07' W 122°58'0 0.1
2016-Sep-24 10:33N 46°07' W 122°58'0 0.0
2016-Sep-24 09:33N 46°07' W 122°58'35 5.8
2016-Sep-24 03:33N 46°12' W 123°48'2 2.5
2016-Sep-24 02:33N 46°11' W 123°52'0 0.2
2016-Sep-24 01:33N 46°11' W 123°52'5 4.5
2016-Sep-24 00:33N 46°13' W 123°46'41 8.1
2016-Sep-23 19:33N 45°59' W 122°50'7 3.6
2016-Sep-23 17:33N 46°05' W 122°56'0 0.0
2016-Sep-23 16:33N 46°05' W 122°56'0 0.0
2016-Sep-23 15:33N 46°05' W 122°56'0 0.0
2016-Sep-23 13:33N 46°05' W 122°56'5 1.1
2016-Sep-23 09:33N 46°02' W 122°53'1 0.3
2016-Sep-23 06:33N 46°01' W 122°52'6 2.8
2016-Sep-23 04:33N 46°05' W 122°56'0 0.0
2016-Sep-23 03:33N 46°05' W 122°56'0 0.0
2016-Sep-23 02:33N 46°05' W 122°56'0 0.0
2016-Sep-23 01:33N 46°05' W 122°56'0 0.0
2016-Sep-23 00:33N 46°05' W 122°56'0 0.0
2016-Sep-22 23:33N 46°05' W 122°56'0 0.0
2016-Sep-22 20:33N 46°05' W 122°56'37 4.6
2016-Sep-22 12:33N 46°12' W 123°48'11 1.4
2016-Sep-22 04:33N 46°16' W 123°33'9 9.4
2016-Sep-22 03:33N 46°09' W 123°23'26 8.7
2016-Sep-22 00:33N 45°58' W 122°49'1211.5
2016-Sep-21 23:33N 45°46' W 122°46'8 7.6
2016-Sep-21 22:33N 45°39' W 122°45'3 0.9
2016-Sep-21 19:33N 45°37' W 122°47'3 0.9
2016-Sep-21 16:33N 45°39' W 122°46'21 3.0
2016-Sep-21 09:33N 46°00' W 122°51'2 1.9
2016-Sep-21 08:33N 46°02' W 122°53'3 1.1
2016-Sep-21 05:33N 45°59' W 122°50'2 0.9
2016-Sep-21 03:33N 46°01' W 122°51'6 6.3
2016-Sep-21 02:33N 46°06' W 122°56'47 5.2
2016-Sep-20 17:33N 46°16' W 124°02'24 8.1
2016-Sep-20 14:33N 46°15' W 123°27'8 7.8
2016-Sep-20 13:33N 46°09' W 123°21'22 7.5
2016-Sep-20 10:33N 46°00' W 122°51'2010.0
2016-Sep-20 08:33N 45°40' W 122°46'4 3.6
2016-Sep-20 07:33N 45°38' W 122°42'1 1.2
2016-Sep-20 06:33N 45°38' W 122°44'1 0.4
2016-Sep-20 02:33N 45°39' W 122°46'0 0.0
2016-Sep-19 23:33N 45°39' W 122°46'1 0.2
2016-Sep-19 19:33N 45°39' W 122°45'0 0.0
2016-Sep-19 18:33N 45°39' W 122°45'0 0.0
2016-Sep-19 16:33N 45°39' W 122°45'2 0.8
2016-Sep-19 14:33N 45°40' W 122°46'2 1.6
2016-Sep-19 13:33N 45°39' W 122°45'2 2.4
2016-Sep-19 12:33N 45°37' W 122°47'1 1.0
2016-Sep-19 11:33N 45°36' W 122°46'3 1.6
2016-Sep-19 09:33N 45°39' W 122°44'1 0.6
2016-Sep-19 07:33N 45°39' W 122°46'3 2.8
2016-Sep-19 06:33N 45°36' W 122°47'3 1.1
2016-Sep-19 03:33N 45°38' W 122°44'1 0.8
2016-Sep-19 02:33N 45°39' W 122°45'2 1.1
2016-Sep-19 00:33N 45°38' W 122°42'4 0.8
2016-Sep-18 19:33N 45°34' W 122°44'4 1.0
2016-Sep-18 15:33N 45°38' W 122°42'2 1.5
2016-Sep-18 14:33N 45°38' W 122°44'1 0.3
2016-Sep-18 10:33N 45°39' W 122°45'0 0.0
2016-Sep-18 09:33N 45°39' W 122°45'5 0.7
2016-Sep-18 02:33N 45°34' W 122°44'0 0.3
2016-Sep-18 01:33N 45°34' W 122°44'1 0.8
2016-Sep-18 00:33N 45°34' W 122°44'0 0.0
2016-Sep-17 22:33N 45°34' W 122°44'0 0.0
2016-Sep-17 21:33N 45°34' W 122°44'0 0.0
2016-Sep-17 20:33N 45°34' W 122°44'0 0.0
2016-Sep-17 19:16N 45°34' W 122°44'0 0.0
2016-Sep-17 13:33N 45°34' W 122°44'0 0.0
2016-Sep-17 12:33N 45°34' W 122°44'0 0.0
2016-Sep-17 10:33N 45°34' W 122°44'0 0.0
2016-Sep-17 09:33N 45°34' W 122°44'0 0.0
2016-Sep-17 08:33N 45°34' W 122°44'5 5.1
2016-Sep-17 07:34N 45°39' W 122°45'0 0.0
2016-Sep-17 05:33N 45°39' W 122°45'0 0.0
2016-Sep-17 04:33N 45°39' W 122°45'0 0.0
2016-Sep-17 00:33N 45°39' W 122°45'1 0.1
2016-Sep-16 17:33N 45°38' W 122°43'1 0.6
2016-Sep-16 15:33N 45°39' W 122°45'1 0.4
2016-Sep-16 12:33N 45°38' W 122°44'2 0.5
2016-Sep-16 09:33N 45°38' W 122°42'2 0.8
2016-Sep-16 07:33N 45°38' W 122°44'1 0.3
2016-Sep-16 03:33N 45°39' W 122°45'1 1.3
2016-Sep-16 02:32N 45°40' W 122°46'2 0.9
2016-Sep-16 00:33N 45°39' W 122°45'5 2.7
2016-Sep-15 22:33N 45°44' W 122°46'1111.4
2016-Sep-15 21:33N 45°55' W 122°48'5 4.6
2016-Sep-15 20:33N 45°59' W 122°50'0 0.0
2016-Sep-15 18:33N 45°59' W 122°50'4 0.6
2016-Sep-15 12:33N 46°03' W 122°53'1 1.1
2016-Sep-15 11:33N 46°02' W 122°52'5 0.7
2016-Sep-15 04:33N 46°05' W 122°56'0 0.0
2016-Sep-15 03:33N 46°05' W 122°56'0 0.0
2016-Sep-15 01:33N 46°05' W 122°56'0 0.0
2016-Sep-14 22:33N 46°05' W 122°56'0 0.0
2016-Sep-14 21:33N 46°05' W 122°56'  
Track history (hours):
 
Tides and Currents Weather Stations Pressure Air Temp Water Temp Dewpoint Dewpoint Depression Visibility Wind Speed Wind Dir Waves Ship Positions

Sommer S

Owner: Shaver Transportation Company, Portland, OR. More information available from US FCC via Universal Licensing System and Coast Guard Vessel Documentation Center.

Last reported at 2016-Sep-24 19:33 UTC. Time now 2016-Sep-24 20:53 UTC.
Position N 45°38' W 122°43'.

Length 25 m; draft 16.5 m.

Type: Tug. MMSI: 367530080.

Date/timePositionNaut miles runAvg speedWind from/ knotsBaromVisibWave heightAir tempDewpointWater temp
2016-Sep-24 19:33N 45°38' W 122°43'1 1.2
2016-Sep-24 18:33N 45°39' W 122°45'7 6.7
2016-Sep-24 17:33N 45°45' W 122°46'7 7.3
2016-Sep-24 16:33N 45°52' W 122°47'14 6.8
2016-Sep-24 14:33N 46°05' W 122°55'3 1.6
2016-Sep-24 12:33N 46°07' W 122°58'0 0.1
2016-Sep-24 10:33N 46°07' W 122°58'0 0.0
2016-Sep-24 09:33N 46°07' W 122°58'35 5.8
2016-Sep-24 03:33N 46°12' W 123°48'2 2.5
2016-Sep-24 02:33N 46°11' W 123°52'0 0.2
2016-Sep-24 01:33N 46°11' W 123°52'5 4.5
2016-Sep-24 00:33N 46°13' W 123°46'41 8.1
2016-Sep-23 19:33N 45°59' W 122°50'7 3.6
2016-Sep-23 17:33N 46°05' W 122°56'0 0.0
2016-Sep-23 16:33N 46°05' W 122°56'0 0.0
2016-Sep-23 15:33N 46°05' W 122°56'0 0.0
2016-Sep-23 13:33N 46°05' W 122°56'5 1.1
2016-Sep-23 09:33N 46°02' W 122°53'1 0.3
2016-Sep-23 06:33N 46°01' W 122°52'6 2.8
2016-Sep-23 04:33N 46°05' W 122°56'0 0.0
2016-Sep-23 03:33N 46°05' W 122°56'0 0.0
2016-Sep-23 02:33N 46°05' W 122°56'0 0.0
2016-Sep-23 01:33N 46°05' W 122°56'0 0.0
2016-Sep-23 00:33N 46°05' W 122°56'0 0.0
2016-Sep-22 23:33N 46°05' W 122°56'0 0.0
2016-Sep-22 20:33N 46°05' W 122°56'37 4.6
2016-Sep-22 12:33N 46°12' W 123°48'11 1.4
2016-Sep-22 04:33N 46°16' W 123°33'9 9.4
2016-Sep-22 03:33N 46°09' W 123°23'26 8.7
2016-Sep-22 00:33N 45°58' W 122°49'1211.5
2016-Sep-21 23:33N 45°46' W 122°46'8 7.6
2016-Sep-21 22:33N 45°39' W 122°45'3 0.9
2016-Sep-21 19:33N 45°37' W 122°47'3 0.9
2016-Sep-21 16:33N 45°39' W 122°46'21 3.0
2016-Sep-21 09:33N 46°00' W 122°51'2 1.9
2016-Sep-21 08:33N 46°02' W 122°53'3 1.1
2016-Sep-21 05:33N 45°59' W 122°50'2 0.9
2016-Sep-21 03:33N 46°01' W 122°51'6 6.3
2016-Sep-21 02:33N 46°06' W 122°56'47 5.2
2016-Sep-20 17:33N 46°16' W 124°02'24 8.1
2016-Sep-20 14:33N 46°15' W 123°27'8 7.8
2016-Sep-20 13:33N 46°09' W 123°21'22 7.5
2016-Sep-20 10:33N 46°00' W 122°51'2010.0
2016-Sep-20 08:33N 45°40' W 122°46'4 3.6
2016-Sep-20 07:33N 45°38' W 122°42'1 1.2
2016-Sep-20 06:33N 45°38' W 122°44'1 0.4
2016-Sep-20 02:33N 45°39' W 122°46'0 0.0
2016-Sep-19 23:33N 45°39' W 122°46'1 0.2
2016-Sep-19 19:33N 45°39' W 122°45'0 0.0
2016-Sep-19 18:33N 45°39' W 122°45'0 0.0
2016-Sep-19 16:33N 45°39' W 122°45'2 0.8
2016-Sep-19 14:33N 45°40' W 122°46'2 1.6
2016-Sep-19 13:33N 45°39' W 122°45'2 2.4
2016-Sep-19 12:33N 45°37' W 122°47'1 1.0
2016-Sep-19 11:33N 45°36' W 122°46'3 1.6
2016-Sep-19 09:33N 45°39' W 122°44'1 0.6
2016-Sep-19 07:33N 45°39' W 122°46'3 2.8
2016-Sep-19 06:33N 45°36' W 122°47'3 1.1
2016-Sep-19 03:33N 45°38' W 122°44'1 0.8
2016-Sep-19 02:33N 45°39' W 122°45'2 1.1
2016-Sep-19 00:33N 45°38' W 122°42'4 0.8
2016-Sep-18 19:33N 45°34' W 122°44'4 1.0
2016-Sep-18 15:33N 45°38' W 122°42'2 1.5
2016-Sep-18 14:33N 45°38' W 122°44'1 0.3
2016-Sep-18 10:33N 45°39' W 122°45'0 0.0
2016-Sep-18 09:33N 45°39' W 122°45'5 0.7
2016-Sep-18 02:33N 45°34' W 122°44'0 0.3
2016-Sep-18 01:33N 45°34' W 122°44'1 0.8
2016-Sep-18 00:33N 45°34' W 122°44'0 0.0
2016-Sep-17 22:33N 45°34' W 122°44'0 0.0
2016-Sep-17 21:33N 45°34' W 122°44'0 0.0
2016-Sep-17 20:33N 45°34' W 122°44'0 0.0
2016-Sep-17 19:16N 45°34' W 122°44'0 0.0
2016-Sep-17 13:33N 45°34' W 122°44'0 0.0
2016-Sep-17 12:33N 45°34' W 122°44'0 0.0
2016-Sep-17 10:33N 45°34' W 122°44'0 0.0
2016-Sep-17 09:33N 45°34' W 122°44'0 0.0
2016-Sep-17 08:33N 45°34' W 122°44'5 5.1
2016-Sep-17 07:34N 45°39' W 122°45'0 0.0
2016-Sep-17 05:33N 45°39' W 122°45'0 0.0
2016-Sep-17 04:33N 45°39' W 122°45'0 0.0
2016-Sep-17 00:33N 45°39' W 122°45'1 0.1
2016-Sep-16 17:33N 45°38' W 122°43'1 0.6
2016-Sep-16 15:33N 45°39' W 122°45'1 0.4
2016-Sep-16 12:33N 45°38' W 122°44'2 0.5
2016-Sep-16 09:33N 45°38' W 122°42'2 0.8
2016-Sep-16 07:33N 45°38' W 122°44'1 0.3
2016-Sep-16 03:33N 45°39' W 122°45'1 1.3
2016-Sep-16 02:32N 45°40' W 122°46'2 0.9
2016-Sep-16 00:33N 45°39' W 122°45'5 2.7
2016-Sep-15 22:33N 45°44' W 122°46'1111.4
2016-Sep-15 21:33N 45°55' W 122°48'5 4.6
2016-Sep-15 20:33N 45°59' W 122°50'0 0.0
2016-Sep-15 18:33N 45°59' W 122°50'4 0.6
2016-Sep-15 12:33N 46°03' W 122°53'1 1.1
2016-Sep-15 11:33N 46°02' W 122°52'5 0.7
2016-Sep-15 04:33N 46°05' W 122°56'0 0.0
2016-Sep-15 03:33N 46°05' W 122°56'0 0.0
2016-Sep-15 01:33N 46°05' W 122°56'0 0.0
2016-Sep-14 22:33N 46°05' W 122°56'0 0.0
2016-Sep-14 21:33N 46°05' W 122°56'  

Dump ship's entire track history